EIN3257 EGPH-EIDW
Flight info
| Callsign | EIN3257 |
|---|---|
| Flight time | N/A |
| Altitude | 20000 |
| Route | TLA DCT TRN P600 BLACA P620 NIMAT NIMAT4L |
| Aircraft | AT76/M-SDFGIRY/S |
Departure
| Time | 2026-05-06 16:46 |
|---|---|
| Airport | Edinburgh Airport (EGPH) |
Arrival
| Time | N/A |
|---|---|
| Airport | Dublin Airport (EIDW) |
| Time | Latitude | Longitude | Altitude | Speed | Heading |
|---|---|---|---|---|---|
| 2026-05-06 16:13 | 55.94658 | -3.36611 | 103 ft | 0 kts | 89° |
| 2026-05-06 16:36 | 55.94658 | -3.36616 | 103 ft | 3 kts | 89° |
| 2026-05-06 16:36 | 55.94658 | -3.36664 | 103 ft | 4 kts | 90° |
| 2026-05-06 16:37 | 55.94656 | -3.36711 | 103 ft | 4 kts | 70° |
| 2026-05-06 16:37 | 55.94647 | -3.36734 | 103 ft | 1 kts | 359° |
| 2026-05-06 16:37 | 55.94646 | -3.36734 | 103 ft | 0 kts | 359° |
| 2026-05-06 16:40 | 55.94686 | -3.36735 | 103 ft | 10 kts | 359° |
| 2026-05-06 16:40 | 55.94761 | -3.36753 | 104 ft | 10 kts | 330° |
| 2026-05-06 16:41 | 55.94822 | -3.36778 | 104 ft | 8 kts | 359° |
| 2026-05-06 16:41 | 55.94894 | -3.36794 | 106 ft | 14 kts | 336° |
| 2026-05-06 16:41 | 55.94915 | -3.36928 | 105 ft | 14 kts | 240° |
| 2026-05-06 16:41 | 55.94847 | -3.37127 | 104 ft | 22 kts | 239° |
| 2026-05-06 16:42 | 55.94765 | -3.37370 | 109 ft | 22 kts | 238° |
| 2026-05-06 16:42 | 55.94707 | -3.37543 | 111 ft | 15 kts | 240° |
| 2026-05-06 16:42 | 55.94649 | -3.37710 | 114 ft | 16 kts | 237° |
| 2026-05-06 16:42 | 55.94586 | -3.37901 | 111 ft | 19 kts | 239° |
| 2026-05-06 16:43 | 55.94514 | -3.38109 | 110 ft | 21 kts | 240° |
| 2026-05-06 16:43 | 55.94440 | -3.38330 | 111 ft | 20 kts | 236° |
| 2026-05-06 16:43 | 55.94367 | -3.38543 | 115 ft | 19 kts | 238° |
| 2026-05-06 16:43 | 55.94299 | -3.38745 | 115 ft | 16 kts | 239° |
| 2026-05-06 16:44 | 55.94302 | -3.38881 | 118 ft | 10 kts | 325° |
| 2026-05-06 16:44 | 55.94321 | -3.38900 | 118 ft | 0 kts | 330° |
| 2026-05-06 16:45 | 55.94362 | -3.38941 | 118 ft | 14 kts | 330° |
| 2026-05-06 16:45 | 55.94426 | -3.38933 | 119 ft | 6 kts | 56° |
| 2026-05-06 16:46 | 55.94480 | -3.38773 | 116 ft | 44 kts | 59° |
| 2026-05-06 16:46 | 55.94758 | -3.37952 | 119 ft | 108 kts | 59° |
| 2026-05-06 16:46 | 55.95191 | -3.36778 | 699 ft | 113 kts | 56° |
| 2026-05-06 16:46 | 55.95761 | -3.35546 | 1073 ft | 142 kts | 51° |
| 2026-05-06 16:47 | 55.96474 | -3.34111 | 1431 ft | 167 kts | 54° |
| 2026-05-06 16:47 | 55.97202 | -3.32347 | 1868 ft | 185 kts | 50° |
| 2026-05-06 16:47 | 55.98133 | -3.30710 | 2387 ft | 195 kts | 44° |
| 2026-05-06 16:47 | 55.99178 | -3.29055 | 2835 ft | 206 kts | 43° |
| 2026-05-06 16:48 | 56.00281 | -3.27336 | 3281 ft | 214 kts | 42° |
| 2026-05-06 16:48 | 56.01415 | -3.25557 | 3718 ft | 219 kts | 42° |
| 2026-05-06 16:48 | 56.02573 | -3.23724 | 4168 ft | 224 kts | 41° |
| 2026-05-06 16:48 | 56.03746 | -3.21843 | 4622 ft | 229 kts | 41° |
| 2026-05-06 16:49 | 56.04919 | -3.19901 | 5068 ft | 232 kts | 43° |
| 2026-05-06 16:49 | 56.05486 | -3.18882 | 5284 ft | 234 kts | 44° |
| 2026-05-06 16:49 | 56.06607 | -3.16736 | 5735 ft | 236 kts | 47° |
| 2026-05-06 16:49 | 56.07283 | -3.14060 | 6184 ft | 245 kts | 81° |
| 2026-05-06 16:50 | 56.06989 | -3.11036 | 6618 ft | 253 kts | 115° |
| 2026-05-06 16:50 | 56.05809 | -3.08714 | 7048 ft | 256 kts | 149° |
| 2026-05-06 16:50 | 56.04134 | -3.07711 | 7489 ft | 255 kts | 170° |
| 2026-05-06 16:50 | 56.02392 | -3.06940 | 7850 ft | 263 kts | 165° |
| 2026-05-06 16:51 | 56.00637 | -3.05702 | 7922 ft | 279 kts | 155° |
| 2026-05-06 16:51 | 55.98919 | -3.03935 | 7954 ft | 290 kts | 148° |
| 2026-05-06 16:51 | 55.97265 | -3.01857 | 7980 ft | 287 kts | 144° |
| 2026-05-06 16:51 | 55.95673 | -2.99879 | 7965 ft | 271 kts | 156° |
| 2026-05-06 16:52 | 55.93878 | -2.99352 | 7978 ft | 259 kts | 190° |
| 2026-05-06 16:52 | 55.92258 | -3.00528 | 7984 ft | 247 kts | 217° |
| 2026-05-06 16:52 | 55.90845 | -3.02255 | 7983 ft | 246 kts | 217° |
| 2026-05-06 16:52 | 55.89390 | -3.03881 | 7977 ft | 247 kts | 213° |
| 2026-05-06 16:53 | 55.87869 | -3.05294 | 7976 ft | 247 kts | 209° |
| 2026-05-06 16:53 | 55.86298 | -3.06549 | 7980 ft | 247 kts | 207° |
| 2026-05-06 16:53 | 55.84717 | -3.07747 | 7973 ft | 246 kts | 206° |
| 2026-05-06 16:53 | 55.83143 | -3.08946 | 7977 ft | 246 kts | 207° |
| 2026-05-06 16:54 | 55.81594 | -3.10150 | 7968 ft | 245 kts | 207° |
| 2026-05-06 16:54 | 55.80044 | -3.11374 | 8112 ft | 237 kts | 208° |
| 2026-05-06 16:54 | 55.78606 | -3.12510 | 8681 ft | 216 kts | 208° |
| 2026-05-06 16:54 | 55.77295 | -3.13552 | 9264 ft | 198 kts | 208° |
| 2026-05-06 16:55 | 55.76091 | -3.14513 | 9858 ft | 182 kts | 210° |
| 2026-05-06 16:55 | 55.74903 | -3.15459 | 10277 ft | 195 kts | 209° |
| 2026-05-06 16:55 | 55.73626 | -3.16501 | 10700 ft | 209 kts | 209° |
| 2026-05-06 16:55 | 55.72272 | -3.17627 | 11136 ft | 221 kts | 210° |
| 2026-05-06 16:56 | 55.70838 | -3.18768 | 11562 ft | 232 kts | 202° |
| 2026-05-06 16:56 | 55.69196 | -3.18896 | 12003 ft | 241 kts | 178° |
| 2026-05-06 16:56 | 55.67494 | -3.18640 | 12409 ft | 250 kts | 180° |
| 2026-05-06 16:56 | 55.65730 | -3.18421 | 12781 ft | 258 kts | 180° |
| 2026-05-06 16:57 | 55.63922 | -3.18178 | 13145 ft | 264 kts | 180° |
| 2026-05-06 16:57 | 55.62073 | -3.17938 | 13528 ft | 268 kts | 180° |
| 2026-05-06 16:57 | 55.60200 | -3.17723 | 13888 ft | 267 kts | 184° |
| 2026-05-06 16:57 | 55.58457 | -3.18586 | 14164 ft | 260 kts | 217° |
| 2026-05-06 16:58 | 55.57303 | -3.20947 | 14475 ft | 255 kts | 249° |
| 2026-05-06 16:58 | 55.57091 | -3.24006 | 14762 ft | 254 kts | 279° |
| 2026-05-06 16:58 | 55.57461 | -3.27064 | 15062 ft | 256 kts | 281° |
| 2026-05-06 16:58 | 55.57787 | -3.30168 | 15351 ft | 258 kts | 279° |
| 2026-05-06 16:59 | 55.57936 | -3.33337 | 15661 ft | 259 kts | 272° |
| 2026-05-06 16:59 | 55.57925 | -3.36486 | 15960 ft | 261 kts | 267° |
| 2026-05-06 16:59 | 55.57681 | -3.39670 | 16268 ft | 262 kts | 260° |
| 2026-05-06 16:59 | 55.57200 | -3.42777 | 16587 ft | 262 kts | 254° |
| 2026-05-06 17:00 | 55.56610 | -3.45830 | 16893 ft | 262 kts | 252° |
| 2026-05-06 17:00 | 55.56003 | -3.48862 | 17207 ft | 261 kts | 252° |
| 2026-05-06 17:00 | 55.55407 | -3.51881 | 17534 ft | 261 kts | 253° |
| 2026-05-06 17:00 | 55.54832 | -3.54919 | 17859 ft | 260 kts | 253° |
| 2026-05-06 17:01 | 55.54269 | -3.57952 | 18190 ft | 260 kts | 253° |
| 2026-05-06 17:01 | 55.53708 | -3.60979 | 18486 ft | 259 kts | 253° |
| 2026-05-06 17:01 | 55.53147 | -3.64004 | 18773 ft | 259 kts | 254° |
| 2026-05-06 17:01 | 55.52588 | -3.67023 | 19062 ft | 258 kts | 253° |
| 2026-05-06 17:02 | 55.52029 | -3.70035 | 19349 ft | 258 kts | 253° |
| 2026-05-06 17:02 | 55.51471 | -3.73034 | 19640 ft | 257 kts | 253° |
| 2026-05-06 17:02 | 55.50911 | -3.76038 | 19844 ft | 260 kts | 253° |
| 2026-05-06 17:02 | 55.50338 | -3.79114 | 19907 ft | 267 kts | 253° |
| 2026-05-06 17:03 | 55.49758 | -3.82230 | 19944 ft | 274 kts | 253° |
| 2026-05-06 17:03 | 55.49157 | -3.85448 | 19960 ft | 279 kts | 253° |
| 2026-05-06 17:03 | 55.48542 | -3.88724 | 19966 ft | 283 kts | 253° |
| 2026-05-06 17:03 | 55.47918 | -3.92039 | 19973 ft | 287 kts | 253° |
| 2026-05-06 17:04 | 55.47285 | -3.95399 | 19972 ft | 290 kts | 253° |
| 2026-05-06 17:04 | 55.46646 | -3.98779 | 19971 ft | 292 kts | 253° |
| 2026-05-06 17:04 | 55.46003 | -4.02183 | 19969 ft | 293 kts | 253° |
| 2026-05-06 17:04 | 55.45357 | -4.05604 | 19972 ft | 295 kts | 253° |
| 2026-05-06 17:05 | 55.44705 | -4.09034 | 19975 ft | 296 kts | 253° |
| 2026-05-06 17:05 | 55.44053 | -4.12468 | 19975 ft | 296 kts | 253° |
| 2026-05-06 17:05 | 55.43397 | -4.15915 | 19971 ft | 297 kts | 253° |
| 2026-05-06 17:05 | 55.42739 | -4.19370 | 19969 ft | 297 kts | 253° |
| 2026-05-06 17:06 | 55.42080 | -4.22822 | 19973 ft | 298 kts | 253° |
| 2026-05-06 17:06 | 55.41419 | -4.26278 | 19970 ft | 298 kts | 253° |
| 2026-05-06 17:06 | 55.40756 | -4.29733 | 19970 ft | 297 kts | 253° |
| 2026-05-06 17:06 | 55.40093 | -4.33183 | 19977 ft | 297 kts | 253° |
| 2026-05-06 17:07 | 55.39431 | -4.36627 | 19974 ft | 298 kts | 253° |
| 2026-05-06 17:07 | 55.38767 | -4.40074 | 19981 ft | 298 kts | 253° |
| 2026-05-06 17:07 | 55.38100 | -4.43529 | 19973 ft | 298 kts | 253° |
| 2026-05-06 17:07 | 55.37433 | -4.46980 | 19976 ft | 298 kts | 253° |
| 2026-05-06 17:08 | 55.36766 | -4.50424 | 19979 ft | 298 kts | 253° |
| 2026-05-06 17:08 | 55.36322 | -4.52712 | 19974 ft | 298 kts | 253° |
| 2026-05-06 17:08 | 55.35651 | -4.56162 | 19977 ft | 298 kts | 253° |
| 2026-05-06 17:08 | 55.34984 | -4.59608 | 19977 ft | 298 kts | 253° |
| 2026-05-06 17:09 | 55.34311 | -4.63052 | 19975 ft | 298 kts | 253° |
| 2026-05-06 17:09 | 55.33639 | -4.66491 | 19976 ft | 298 kts | 253° |
| 2026-05-06 17:09 | 55.32966 | -4.69931 | 19973 ft | 298 kts | 253° |
| 2026-05-06 17:09 | 55.32292 | -4.73364 | 19976 ft | 297 kts | 253° |
| 2026-05-06 17:10 | 55.31547 | -4.76740 | 19971 ft | 298 kts | 243° |
| 2026-05-06 17:10 | 55.30134 | -4.79415 | 19973 ft | 302 kts | 221° |
| 2026-05-06 17:10 | 55.28324 | -4.81348 | 19976 ft | 306 kts | 210° |
| 2026-05-06 17:10 | 55.26396 | -4.82937 | 19977 ft | 307 kts | 208° |
| 2026-05-06 17:11 | 55.24447 | -4.84485 | 19974 ft | 307 kts | 208° |
| 2026-05-06 17:11 | 55.22514 | -4.86087 | 19973 ft | 307 kts | 210° |
| 2026-05-06 17:11 | 55.20603 | -4.87768 | 19977 ft | 308 kts | 211° |
| 2026-05-06 17:11 | 55.18681 | -4.89456 | 19973 ft | 309 kts | 210° |
| 2026-05-06 17:12 | 55.16780 | -4.91124 | 19971 ft | 309 kts | 210° |
| 2026-05-06 17:12 | 55.14857 | -4.92811 | 19970 ft | 309 kts | 210° |
| 2026-05-06 17:12 | 55.12934 | -4.94491 | 19967 ft | 309 kts | 210° |
| 2026-05-06 17:12 | 55.11011 | -4.96165 | 19969 ft | 309 kts | 210° |
| 2026-05-06 17:13 | 55.09091 | -4.97842 | 19976 ft | 309 kts | 210° |
| 2026-05-06 17:13 | 55.07166 | -4.99518 | 19973 ft | 309 kts | 210° |
| 2026-05-06 17:13 | 55.05242 | -5.01193 | 19974 ft | 309 kts | 210° |
| 2026-05-06 17:13 | 55.03312 | -5.02872 | 19975 ft | 309 kts | 210° |
| 2026-05-06 17:14 | 55.01387 | -5.04542 | 19969 ft | 309 kts | 210° |
| 2026-05-06 17:14 | 54.99462 | -5.06215 | 19972 ft | 309 kts | 210° |
| 2026-05-06 17:14 | 54.97533 | -5.07883 | 19968 ft | 309 kts | 210° |
| 2026-05-06 17:14 | 54.95610 | -5.09551 | 19975 ft | 309 kts | 210° |
| 2026-05-06 17:15 | 54.93684 | -5.11212 | 19970 ft | 309 kts | 210° |
| 2026-05-06 17:15 | 54.91758 | -5.12879 | 19972 ft | 309 kts | 210° |
| 2026-05-06 17:15 | 54.89831 | -5.14538 | 19974 ft | 309 kts | 210° |
| 2026-05-06 17:15 | 54.87886 | -5.16145 | 19971 ft | 311 kts | 205° |
| 2026-05-06 17:16 | 54.85780 | -5.17102 | 19970 ft | 313 kts | 194° |
| 2026-05-06 17:16 | 54.83637 | -5.17748 | 19971 ft | 313 kts | 193° |
| 2026-05-06 17:16 | 54.81491 | -5.18386 | 19969 ft | 313 kts | 194° |
| 2026-05-06 17:16 | 54.79381 | -5.19116 | 19973 ft | 313 kts | 195° |
| 2026-05-06 17:17 | 54.77253 | -5.19922 | 19972 ft | 313 kts | 196° |
| 2026-05-06 17:17 | 54.75121 | -5.20711 | 19973 ft | 313 kts | 195° |
| 2026-05-06 17:17 | 54.72984 | -5.21494 | 19973 ft | 313 kts | 195° |
| 2026-05-06 17:17 | 54.70851 | -5.22276 | 19971 ft | 313 kts | 195° |
| 2026-05-06 17:18 | 54.68715 | -5.23060 | 19970 ft | 314 kts | 195° |
| 2026-05-06 17:18 | 54.66579 | -5.23841 | 19970 ft | 314 kts | 195° |
| 2026-05-06 17:18 | 54.64443 | -5.24622 | 19968 ft | 314 kts | 195° |
| 2026-05-06 17:18 | 54.62302 | -5.25401 | 19971 ft | 314 kts | 195° |
| 2026-05-06 17:19 | 54.60163 | -5.26184 | 19969 ft | 314 kts | 195° |
| 2026-05-06 17:19 | 54.58023 | -5.26961 | 19965 ft | 314 kts | 195° |
| 2026-05-06 17:19 | 54.55886 | -5.27744 | 19965 ft | 314 kts | 195° |
| 2026-05-06 17:19 | 54.53749 | -5.28518 | 19966 ft | 314 kts | 195° |
| 2026-05-06 17:20 | 54.51639 | -5.29287 | 19965 ft | 314 kts | 195° |
| 2026-05-06 17:20 | 54.49475 | -5.30067 | 19962 ft | 313 kts | 195° |
| 2026-05-06 17:20 | 54.47473 | -5.31279 | 19962 ft | 308 kts | 209° |
| 2026-05-06 17:20 | 54.45579 | -5.33001 | 19965 ft | 308 kts | 212° |
| 2026-05-06 17:21 | 54.43697 | -5.34781 | 19964 ft | 309 kts | 212° |
| 2026-05-06 17:21 | 54.41782 | -5.36484 | 19963 ft | 310 kts | 210° |
| 2026-05-06 17:21 | 54.39848 | -5.38104 | 19963 ft | 310 kts | 209° |
| 2026-05-06 17:21 | 54.37907 | -5.39733 | 19964 ft | 310 kts | 209° |
| 2026-05-06 17:22 | 54.35972 | -5.41368 | 19964 ft | 310 kts | 209° |
| 2026-05-06 17:22 | 54.34036 | -5.42996 | 19964 ft | 310 kts | 209° |
| 2026-05-06 17:22 | 54.32092 | -5.44635 | 19810 ft | 315 kts | 209° |
| 2026-05-06 17:22 | 54.30113 | -5.46297 | 19688 ft | 317 kts | 209° |
| 2026-05-06 17:23 | 54.28126 | -5.47966 | 19534 ft | 320 kts | 209° |
| 2026-05-06 17:23 | 54.26111 | -5.49653 | 19346 ft | 323 kts | 209° |
| 2026-05-06 17:23 | 54.24138 | -5.51307 | 19210 ft | 316 kts | 209° |
| 2026-05-06 17:23 | 54.22178 | -5.52946 | 19068 ft | 310 kts | 209° |
| 2026-05-06 17:24 | 54.20253 | -5.54558 | 18921 ft | 307 kts | 209° |
| 2026-05-06 17:24 | 54.18343 | -5.56151 | 18768 ft | 304 kts | 209° |
| 2026-05-06 17:24 | 54.16451 | -5.57734 | 18604 ft | 302 kts | 209° |
| 2026-05-06 17:24 | 54.14564 | -5.59305 | 18440 ft | 301 kts | 209° |
| 2026-05-06 17:25 | 54.12679 | -5.60865 | 18273 ft | 300 kts | 209° |
| 2026-05-06 17:25 | 54.10801 | -5.62430 | 18091 ft | 300 kts | 209° |
| 2026-05-06 17:25 | 54.08926 | -5.63987 | 17903 ft | 299 kts | 209° |
| 2026-05-06 17:25 | 54.07053 | -5.65545 | 17718 ft | 299 kts | 209° |
| 2026-05-06 17:26 | 54.05180 | -5.67094 | 17546 ft | 299 kts | 209° |
| 2026-05-06 17:26 | 54.03312 | -5.68644 | 17370 ft | 299 kts | 209° |
| 2026-05-06 17:26 | 54.01445 | -5.70192 | 17198 ft | 298 kts | 209° |
| 2026-05-06 17:26 | 53.99580 | -5.71729 | 17028 ft | 298 kts | 209° |
| 2026-05-06 17:27 | 53.97740 | -5.73253 | 16863 ft | 298 kts | 209° |
| 2026-05-06 17:27 | 53.95805 | -5.74482 | 16665 ft | 301 kts | 192° |
| 2026-05-06 17:27 | 53.93713 | -5.74693 | 16492 ft | 302 kts | 184° |
| 2026-05-06 17:27 | 53.91608 | -5.74677 | 16330 ft | 303 kts | 182° |
| 2026-05-06 17:28 | 53.89500 | -5.74679 | 16172 ft | 303 kts | 184° |
| 2026-05-06 17:28 | 53.87395 | -5.74792 | 16016 ft | 303 kts | 186° |
| 2026-05-06 17:28 | 53.85276 | -5.74967 | 15666 ft | 309 kts | 186° |
| 2026-05-06 17:28 | 53.83110 | -5.75130 | 15340 ft | 312 kts | 185° |
| 2026-05-06 17:29 | 53.81058 | -5.75269 | 15017 ft | 285 kts | 185° |
| 2026-05-06 17:29 | 53.79071 | -5.75410 | 14537 ft | 285 kts | 185° |
| 2026-05-06 17:29 | 53.77094 | -5.75547 | 14075 ft | 284 kts | 185° |
| 2026-05-06 17:29 | 53.75118 | -5.75684 | 13594 ft | 283 kts | 185° |
| 2026-05-06 17:30 | 53.73178 | -5.75826 | 13088 ft | 283 kts | 185° |
| 2026-05-06 17:30 | 53.71213 | -5.75963 | 12580 ft | 282 kts | 185° |
| 2026-05-06 17:30 | 53.69257 | -5.76098 | 12086 ft | 281 kts | 185° |
| 2026-05-06 17:30 | 53.67304 | -5.76236 | 11599 ft | 280 kts | 185° |
| 2026-05-06 17:31 | 53.65359 | -5.76368 | 11118 ft | 278 kts | 184° |
| 2026-05-06 17:31 | 53.63476 | -5.75794 | 10665 ft | 279 kts | 156° |
| 2026-05-06 17:31 | 53.61878 | -5.74001 | 10273 ft | 276 kts | 141° |
| 2026-05-06 17:31 | 53.60551 | -5.71712 | 9924 ft | 265 kts | 130° |
| 2026-05-06 17:32 | 53.59456 | -5.69214 | 9495 ft | 265 kts | 127° |
| 2026-05-06 17:32 | 53.58384 | -5.66610 | 9069 ft | 277 kts | 126° |
| 2026-05-06 17:32 | 53.57250 | -5.63937 | 8646 ft | 281 kts | 131° |
| 2026-05-06 17:32 | 53.55714 | -5.61900 | 8250 ft | 283 kts | 150° |
| 2026-05-06 17:33 | 53.54053 | -5.60315 | 8060 ft | 253 kts | 153° |
| 2026-05-06 17:33 | 53.52656 | -5.59029 | 8002 ft | 212 kts | 153° |
| 2026-05-06 17:33 | 53.51473 | -5.57894 | 7970 ft | 181 kts | 152° |